Terminal Aerodrome Forecast
Issued by NWS

Home | Current Version | Previous Version | Graphics & Text | Print | Product List | Glossary On
Versions: 1 2 3 4 5 6 7 8 9 10 11 12 13 14 15 16 17 18
322
FTUS43 KFGF 071050 AAA
TAFBJI
TAF AMD
KBJI 071050Z 0711/0806 26015KT P6SM OVC006
      TEMPO 0711/0713 4SM BR
     FM071300 29018G25KT 3/4SM -SN BKN010
     FM080100 31018G25KT 4SM -SN BKN015=

USA.gov is the U.S. government's official web portal to all federal, state and local government web resources and services.